Time;durP1;ratioP1;P1;durP2;ratioP2;P2;SDS_P1;SDS_P2;PMS_P1;PMS_P2;Temp;Humidity;BMP_temperature;BMP_pressure;BME280_temperature;BME280_humidity;BME280_pressure;Samples;Min_cycle;Max_cycle;Signal;HPM_P1;HPM_P2
2022/08/03 00:01:35;;;;;;;5.30;1.67;;;;;;;23.97;92.67;100322.84;5052894;28;20021;-82
2022/08/03 00:04:00;;;;;;;10.50;1.88;;;;;;;23.68;93.90;100319.28;5059211;28;20017;-82
2022/08/03 00:06:26;;;;;;;8.30;1.42;;;;;;;23.90;93.46;100321.97;5074812;28;20028;-82
2022/08/03 00:08:51;;;;;;;12.88;2.28;;;;;;;23.89;93.35;100315.75;5074538;28;20032;-82
2022/08/03 00:11:16;;;;;;;7.20;1.33;;;;;;;23.80;94.10;100316.94;5056481;28;20039;-82
2022/08/03 00:13:42;;;;;;;6.55;1.67;;;;;;;23.92;93.51;100309.19;5057318;28;20048;-82
2022/08/03 00:16:09;;;;;;;6.15;1.55;;;;;;;23.86;93.90;100302.75;5074608;28;20056;-82
2022/08/03 00:18:35;;;;;;;9.50;2.78;;;;;;;23.81;93.91;100299.81;5075167;28;20359;-82
2022/08/03 00:21:00;;;;;;;5.78;1.55;;;;;;;23.81;93.52;100304.34;5074460;28;20025;-82
2022/08/03 00:23:26;;;;;;;9.40;2.20;;;;;;;23.86;93.66;100307.31;5071837;28;20032;-81
2022/08/03 00:25:51;;;;;;;4.95;1.30;;;;;;;23.77;94.38;100298.53;5053956;28;20037;-82
2022/08/03 00:28:17;;;;;;;7.28;1.48;;;;;;;23.85;93.77;100292.22;5054187;28;20036;-82
2022/08/03 00:30:42;;;;;;;9.10;1.42;;;;;;;23.99;92.67;100299.34;5054312;28;20052;-82
2022/08/03 00:33:09;;;;;;;7.60;1.67;;;;;;;24.07;91.93;100301.06;5054413;28;20475;-82
2022/08/03 00:35:34;;;;;;;9.73;1.75;;;;;;;23.95;92.63;100298.06;5074366;28;20028;-82
2022/08/03 00:37:59;;;;;;;9.15;1.88;;;;;;;23.82;93.45;100292.63;5074202;28;20044;-82
2022/08/03 00:40:25;;;;;;;7.13;1.92;;;;;;;24.01;92.69;100291.94;5072213;28;20037;-82
2022/08/03 00:42:58;;;;;;;6.28;1.73;;;;;;;23.98;93.33;100295.00;5074053;28;20052;-81
2022/08/03 00:45:27;;;;;;;6.20;1.40;;;;;;;23.85;93.91;100289.53;5055008;28;20057;-81
2022/08/03 00:47:53;;;;;;;8.07;1.30;;;;;;;23.78;94.19;100291.34;5054067;28;20071;-81
2022/08/03 00:50:24;;;;;;;3.63;1.15;;;;;;;23.74;93.76;100280.97;5053807;28;20025;-81
2022/08/03 00:52:52;;;;;;;14.00;1.92;;;;;;;23.82;93.83;100284.59;5053946;28;20104;-81
2022/08/03 00:55:18;;;;;;;10.98;1.95;;;;;;;23.52;94.26;100279.34;5057068;28;20074;-82
2022/08/03 00:57:44;;;;;;;9.93;1.88;;;;;;;23.33;96.42;100278.94;5053839;28;20418;-82
2022/08/03 01:00:11;;;;;;;8.77;1.95;;;;;;;23.38;96.18;100275.72;5053624;28;20044;-81
2022/08/03 01:02:38;;;;;;;9.88;1.60;;;;;;;23.59;94.61;100280.22;5054036;28;20029;-82
2022/08/03 01:05:04;;;;;;;11.27;1.90;;;;;;;23.45;95.74;100281.94;5070008;28;20478;-82
2022/08/03 01:07:49;;;;;;;9.32;1.63;;;;;;;23.54;95.38;100278.13;5072478;28;20119;-82
2022/08/03 01:10:46;;;;;;;10.77;2.10;;;;;;;23.52;95.85;100276.66;5060359;28;20388;-82
2022/08/03 01:13:38;;;;;;;11.32;1.63;;;;;;;23.62;94.96;100273.63;5055051;28;20052;-82
2022/08/03 01:16:26;;;;;;;10.25;1.80;;;;;;;23.58;95.30;100270.53;5073411;28;20099;-82
2022/08/03 01:19:05;;;;;;;7.20;1.83;;;;;;;23.58;95.24;100273.22;5073557;28;20425;-81
2022/08/03 01:21:45;;;;;;;7.97;1.63;;;;;;;23.52;95.71;100260.59;5073515;28;20554;-82
2022/08/03 01:24:28;;;;;;;10.57;1.77;;;;;;;23.49;96.45;100264.47;5061867;28;20025;-82
2022/08/03 01:27:28;;;;;;;9.32;1.98;;;;;;;23.56;95.68;100264.53;5051906;28;20057;-82
2022/08/03 01:30:01;;;;;;;8.23;1.50;;;;;;;23.53;96.40;100263.06;5053108;28;20021;-82
2022/08/03 01:32:38;;;;;;;7.13;1.67;;;;;;;23.62;96.02;100257.56;5054234;28;20017;-82
2022/08/03 01:35:12;;;;;;;4.85;1.73;;;;;;;23.64;95.45;100251.00;5070141;28;20394;-82
2022/08/03 01:37:46;;;;;;;10.13;2.22;;;;;;;23.58;95.64;100257.13;5073552;28;20025;-81
2022/08/03 01:40:14;;;;;;;3.05;1.45;;;;;;;23.64;95.50;100248.31;5060806;28;20025;-81
2022/08/03 01:42:41;;;;;;;12.07;2.20;;;;;;;23.47;96.05;100252.28;5053034;28;20028;-81
2022/08/03 01:45:10;;;;;;;6.15;1.55;;;;;;;23.42;96.79;100246.66;5053867;28;20039;-81
2022/08/03 01:47:36;;;;;;;7.72;1.50;;;;;;;23.57;95.95;100255.47;5051476;28;20445;-81
2022/08/03 01:50:06;;;;;;;9.55;1.42;;;;;;;23.56;96.39;100246.59;5052883;28;20032;-81
2022/08/03 01:52:32;;;;;;;7.68;1.65;;;;;;;23.56;95.71;100249.28;5052838;28;20387;-82
2022/08/03 01:54:59;;;;;;;5.97;1.50;;;;;;;23.47;95.98;100246.94;5055526;28;20029;-82
2022/08/03 01:57:28;;;;;;;12.27;2.03;;;;;;;23.48;96.68;100253.94;5072295;28;20498;-82
2022/08/03 01:59:56;;;;;;;16.20;2.13;;;;;;;23.49;96.37;100252.94;5072393;28;20028;-82
2022/08/03 02:02:22;;;;;;;10.23;1.52;;;;;;;23.63;94.95;100241.28;5072673;28;20360;-81
2022/08/03 02:04:49;;;;;;;7.82;1.85;;;;;;;23.66;95.24;100251.63;5054899;28;20414;-82
2022/08/03 02:07:15;;;;;;;6.30;1.70;;;;;;;23.45;96.01;100251.66;5052524;28;20044;-82
2022/08/03 02:09:43;;;;;;;5.35;1.67;;;;;;;23.53;96.60;100248.84;5051524;28;20119;-82
2022/08/03 02:12:11;;;;;;;10.07;2.00;;;;;;;23.38;96.72;100253.44;5052520;28;20029;-82
2022/08/03 02:14:39;;;;;;;6.93;1.35;;;;;;;23.37;97.22;100247.25;5065138;28;20230;-81
2022/08/03 02:17:06;;;;;;;9.02;1.52;;;;;;;23.49;96.64;100250.25;5072183;28;20060;-81
2022/08/03 02:19:33;;;;;;;8.68;1.70;;;;;;;23.53;95.89;100256.88;5072232;28;20432;-81
2022/08/03 02:21:59;;;;;;;10.30;2.05;;;;;;;23.47;96.41;100252.28;5070357;28;20111;-82
2022/08/03 02:24:25;;;;;;;3.70;0.93;;;;;;;23.52;95.92;100241.84;5057599;28;20056;-82
2022/08/03 02:26:54;;;;;;;8.60;1.58;;;;;;;23.12;98.58;100242.28;5052107;28;20121;-82
2022/08/03 02:29:22;;;;;;;5.53;1.13;;;;;;;23.16;99.18;100234.69;5052045;28;20025;-82
2022/08/03 02:31:49;;;;;;;7.63;1.63;;;;;;;23.24;98.23;100245.25;5050758;28;20546;-82
2022/08/03 02:34:15;;;;;;;11.02;1.20;;;;;;;23.45;97.38;100244.44;5064161;28;20043;-82
2022/08/03 02:36:45;;;;;;;6.88;1.27;;;;;;;23.49;97.46;100244.88;5072190;28;20047;-82
2022/08/03 02:39:14;;;;;;;7.72;1.40;;;;;;;23.49;97.16;100248.38;5061639;28;20029;-82
2022/08/03 02:41:47;;;;;;;5.05;1.20;;;;;;;23.23;99.09;100240.94;5051732;28;20029;-82
2022/08/03 02:44:15;;;;;;;7.25;1.90;;;;;;;23.41;97.68;100250.38;5063747;28;20055;-82
2022/08/03 02:46:44;;;;;;;7.47;1.40;;;;;;;23.51;97.75;100253.56;5071835;28;20032;-82
2022/08/03 02:49:12;;;;;;;4.28;1.25;;;;;;;23.34;98.12;100245.78;5071944;28;20107;-83
2022/08/03 02:51:39;;;;;;;4.45;0.88;;;;;;;23.39;98.44;100247.06;5072055;28;20433;-82
2022/08/03 02:54:08;;;;;;;8.25;1.73;;;;;;;23.32;98.49;100253.19;5059788;28;20048;-82
2022/08/03 02:56:34;;;;;;;14.70;3.20;;;;;;;23.18;99.42;100243.34;5052281;28;20067;-82
2022/08/03 02:59:00;;;;;;;6.80;1.45;;;;;;;23.33;99.06;100246.81;5051807;28;20063;-81
2022/08/03 03:01:27;;;;;;;7.05;1.27;;;;;;;23.42;98.61;100249.34;5051764;28;20017;-82
2022/08/03 03:03:56;;;;;;;3.92;0.93;;;;;;;23.31;99.41;100246.16;5061481;28;20028;-82
2022/08/03 03:06:24;;;;;;;8.45;1.73;;;;;;;23.25;100.00;100246.94;5071510;28;20033;-82
2022/08/03 03:08:51;;;;;;;4.90;0.82;;;;;;;23.23;100.00;100243.63;5071550;28;20029;-82
2022/08/03 03:11:19;;;;;;;5.97;1.08;;;;;;;23.39;100.00;100255.09;5057103;28;20506;-82
2022/08/03 03:13:45;;;;;;;4.40;1.27;;;;;;;23.16;100.00;100243.56;5061904;28;20040;-81
2022/08/03 03:16:13;;;;;;;5.78;0.88;;;;;;;23.27;100.00;100250.25;5071538;28;20047;-81
2022/08/03 03:18:39;;;;;;;6.90;0.82;;;;;;;23.35;100.00;100244.75;5071606;28;20029;-81
2022/08/03 03:21:07;;;;;;;6.38;1.13;;;;;;;23.36;100.00;100241.06;5071430;28;20025;-82
2022/08/03 03:23:36;;;;;;;4.10;0.88;;;;;;;23.16;100.00;100229.31;5062145;28;20040;-81
2022/08/03 03:26:01;;;;;;;8.48;1.38;;;;;;;23.21;100.00;100239.47;5051147;28;20025;-81
2022/08/03 03:28:27;;;;;;;3.67;0.68;;;;;;;23.26;100.00;100243.25;5051275;28;20432;-82
2022/08/03 03:30:53;;;;;;;6.72;1.50;;;;;;;23.20;100.00;100240.47;5051351;28;20033;-81
2022/08/03 03:33:20;;;;;;;4.28;1.38;;;;;;;23.11;100.00;100247.81;5057382;28;20078;-81
2022/08/03 03:35:46;;;;;;;2.53;0.60;;;;;;;23.17;100.00;100239.84;5072951;28;20108;-81
2022/08/03 03:38:11;;;;;;;4.55;1.00;;;;;;;23.08;100.00;100240.16;5070290;28;20112;-81
2022/08/03 03:40:38;;;;;;;6.35;1.00;;;;;;;23.13;100.00;100245.78;5055082;28;20029;-81
2022/08/03 03:43:07;;;;;;;2.65;0.65;;;;;;;23.15;100.00;100233.03;5059591;28;20021;-81
2022/08/03 03:45:34;;;;;;;4.65;0.70;;;;;;;22.82;100.00;100228.13;5074957;28;20032;-82
2022/08/03 03:48:00;;;;;;;3.67;0.77;;;;;;;22.96;100.00;100237.94;5075148;28;20024;-82
2022/08/03 03:50:27;;;;;;;3.85;0.80;;;;;;;22.92;100.00;100236.66;5074982;28;20024;-82
2022/08/03 03:52:52;;;;;;;5.00;1.10;;;;;;;22.94;100.00;100237.31;5069069;28;20033;-82
2022/08/03 03:55:18;;;;;;;3.67;0.77;;;;;;;22.89;100.00;100234.38;5074842;28;20414;-82
2022/08/03 03:57:43;;;;;;;2.55;0.70;;;;;;;23.04;100.00;100236.19;5075140;28;20051;-82
2022/08/03 04:00:11;;;;;;;3.15;0.80;;;;;;;23.02;100.00;100238.22;5074686;28;20497;-82
2022/08/03 04:02:38;;;;;;;4.93;0.73;;;;;;;23.04;100.00;100236.19;5071926;28;20016;-82
2022/08/03 04:10:59;;;;;;;3.05;0.85;;;;;;;23.09;100.00;100249.88;5055118;28;20035;-81
2022/08/03 04:13:29;;;;;;;5.07;0.77;;;;;;;23.09;100.00;100233.81;5061877;28;20033;-82
2022/08/03 04:15:57;;;;;;;2.17;0.73;;;;;;;23.07;100.00;100242.00;5074814;28;20020;-82
2022/08/03 04:18:26;;;;;;;2.28;0.75;;;;;;;23.01;100.00;100240.06;5074767;28;20043;-82
2022/08/03 04:20:54;;;;;;;2.45;0.93;;;;;;;23.10;100.00;100228.22;5074541;28;20032;-82
2022/08/03 04:23:23;;;;;;;3.38;0.80;;;;;;;23.15;100.00;100243.75;5066328;28;20087;-82
2022/08/03 04:25:50;;;;;;;3.60;0.80;;;;;;;22.99;100.00;100238.59;5054483;28;20013;-82
2022/08/03 04:28:18;;;;;;;4.25;1.00;;;;;;;23.04;100.00;100236.19;5054567;28;20094;-82
2022/08/03 04:30:49;;;;;;;7.15;1.08;;;;;;;23.13;100.00;100240.44;5054704;28;20028;-82
2022/08/03 04:33:17;;;;;;;3.67;0.70;;;;;;;23.02;100.00;100238.22;5060500;28;20029;-82
2022/08/03 04:35:45;;;;;;;3.33;0.70;;;;;;;22.82;100.00;100233.47;5074345;28;20036;-82
2022/08/03 04:38:13;;;;;;;3.63;0.70;;;;;;;23.03;100.00;100235.38;5070826;28;20050;-81
2022/08/03 04:40:41;;;;;;;3.25;0.85;;;;;;;23.04;100.00;100230.84;5054329;28;20547;-81
2022/08/03 04:43:08;;;;;;;3.17;0.85;;;;;;;23.10;100.00;100235.44;5065153;28;20524;-81
2022/08/03 04:45:35;;;;;;;4.35;1.05;;;;;;;23.20;100.00;100225.25;5055437;28;20041;-81
2022/08/03 04:48:01;;;;;;;4.93;1.13;;;;;;;23.02;100.00;100231.03;5053467;28;20155;-82
2022/08/03 04:50:27;;;;;;;4.35;0.80;;;;;;;23.07;100.00;100225.94;5054084;28;20382;-81
2022/08/03 04:52:53;;;;;;;2.15;0.57;;;;;;;23.21;100.00;100232.25;5058933;28;20017;-81
2022/08/03 04:55:30;;;;;;;9.57;0.63;;;;;;;23.38;100.00;100223.97;5055146;28;20371;-81
2022/08/03 04:57:56;;;;;;;3.70;1.10;;;;;;;23.27;100.00;100230.69;5054087;28;20033;-81
2022/08/03 05:00:22;;;;;;;2.63;0.68;;;;;;;23.21;100.00;100220.72;5054282;28;20600;-81
2022/08/03 05:02:47;;;;;;;2.85;0.70;;;;;;;23.27;100.00;100219.97;5069699;28;20050;-81
2022/08/03 05:05:14;;;;;;;2.60;0.50;;;;;;;23.28;100.00;100232.31;5071120;28;20016;-81
2022/08/03 05:07:40;;;;;;;3.35;0.60;;;;;;;23.07;100.00;100228.63;5063075;28;20517;-81
2022/08/03 05:10:08;;;;;;;2.00;0.77;;;;;;;23.21;100.00;100237.63;5074060;28;20030;-81
2022/08/03 05:12:34;;;;;;;4.10;1.15;;;;;;;23.32;100.00;100246.97;5074112;28;20025;-81
2022/08/03 05:15:00;;;;;;;3.70;0.95;;;;;;;23.12;100.00;100231.56;5069995;28;20375;-81
2022/08/03 05:17:25;;;;;;;1.45;0.70;;;;;;;23.25;100.00;100235.41;5053700;28;20364;-81
2022/08/03 05:19:51;;;;;;;6.57;1.02;;;;;;;23.31;100.00;100242.66;5054106;28;20525;-81
2022/08/03 05:22:16;;;;;;;3.28;1.02;;;;;;;22.99;100.00;100238.59;5053165;28;20078;-81
2022/08/03 05:24:41;;;;;;;3.63;0.95;;;;;;;23.07;100.00;100241.19;5053595;28;20017;-81
2022/08/03 05:27:07;;;;;;;6.18;0.63;;;;;;;23.30;100.00;100241.84;5073589;28;20051;-81
2022/08/03 05:29:32;;;;;;;5.15;1.33;;;;;;;23.38;100.00;100242.72;5073692;28;20056;-81
2022/08/03 05:31:57;;;;;;;2.05;0.73;;;;;;;23.32;100.00;100247.84;5071467;28;20078;-81
2022/08/03 05:34:23;;;;;;;3.60;0.70;;;;;;;23.24;100.00;100247.94;5071548;28;20060;-81
2022/08/03 05:36:48;;;;;;;1.02;0.50;;;;;;;23.51;100.00;100250.88;5055231;28;20032;-81
2022/08/03 05:39:14;;;;;;;2.33;0.68;;;;;;;23.39;100.00;100263.16;5053574;28;20115;-81
2022/08/03 05:41:39;;;;;;;1.58;0.63;;;;;;;23.43;100.00;100256.38;5055710;28;20024;-81
2022/08/03 05:44:04;;;;;;;3.85;0.70;;;;;;;23.53;100.00;100254.19;5055913;28;20021;-81
2022/08/03 05:46:30;;;;;;;2.10;0.60;;;;;;;;;;5053280;28;20032;-81
2022/08/03 05:48:55;;;;;;;3.10;0.80;;;;;;;23.54;100.00;100247.84;5053059;28;20040;-81
2022/08/03 05:51:21;;;;;;;4.85;0.50;;;;;;;23.63;100.00;100246.66;5053191;28;20471;-81
2022/08/03 05:53:46;;;;;;;3.22;0.80;;;;;;;23.71;100.00;100251.03;5063596;28;20028;-81
2022/08/03 05:56:12;;;;;;;6.55;0.95;;;;;;;23.55;100.00;100260.19;5070541;28;20065;-81
2022/08/03 05:58:37;;;;;;;5.45;1.25;;;;;;;23.57;100.00;100252.78;5053228;28;20029;-81
2022/08/03 06:01:03;;;;;;;2.65;0.90;;;;;;;23.72;100.00;100253.53;5085465;28;20386;-81
2022/08/03 06:03:28;;;;;;;4.22;0.90;;;;;;;23.57;100.00;100263.50;5067348;28;20509;-80
2022/08/03 06:05:55;;;;;;;2.75;1.13;;;;;;;23.54;100.00;100259.38;5093061;28;20030;-80
2022/08/03 06:08:21;;;;;;;2.72;0.68;;;;;;;23.80;100.00;100262.50;5092605;28;20034;-81
2022/08/03 06:10:46;;;;;;;4.43;0.80;;;;;;;23.86;100.00;100257.19;5077836;28;20024;-82
2022/08/03 06:13:12;;;;;;;8.85;1.42;;;;;;;23.90;100.00;100260.31;5062307;28;20497;-81
2022/08/03 06:15:37;;;;;;;3.70;0.82;;;;;;;23.99;100.00;100256.44;5070449;28;20370;-82
2022/08/03 06:18:02;;;;;;;4.95;0.80;;;;;;;23.71;100.00;100251.88;5072345;28;20030;-81
2022/08/03 06:20:29;;;;;;;3.45;0.93;;;;;;;23.93;100.00;100255.38;5066179;28;20017;-81
2022/08/03 06:22:54;;;;;;;5.72;0.85;;;;;;;23.96;100.00;100264.88;5070534;28;20412;-81
2022/08/03 06:25:19;;;;;;;4.90;0.63;;;;;;;23.82;100.00;100274.69;5072310;28;20021;-81
2022/08/03 06:27:45;;;;;;;1.90;0.68;;;;;;;23.83;100.00;100260.22;5071212;28;20029;-82
2022/08/03 06:30:11;;;;;;;3.22;0.70;;;;;;;23.86;100.00;100272.44;5058902;28;20541;-82
2022/08/03 06:32:38;;;;;;;2.03;0.47;;;;;;;23.94;100.00;100264.25;5070423;28;20021;-82
2022/08/03 06:35:07;;;;;;;4.80;0.70;;;;;;;24.04;100.00;100277.31;5072270;28;20025;-81
2022/08/03 06:37:46;;;;;;;3.60;0.98;;;;;;;24.08;100.00;100267.84;5072055;28;20082;-81
2022/08/03 06:40:13;;;;;;;4.85;1.08;;;;;;;23.96;100.00;100267.56;5068462;28;20113;-82
2022/08/03 06:42:40;;;;;;;3.47;0.80;;;;;;;24.01;100.00;100269.66;5065220;28;20020;-82
2022/08/03 06:45:07;;;;;;;6.03;1.00;;;;;;;23.82;100.00;100269.31;5071866;28;20032;-81
2022/08/03 06:47:33;;;;;;;4.67;2.00;;;;;;;23.78;100.00;100276.09;5071871;28;20032;-81
2022/08/03 06:49:58;;;;;;;4.68;0.90;;;;;;;23.99;100.00;100274.38;5072055;28;20025;-82
2022/08/03 06:52:23;;;;;;;3.65;0.90;;;;;;;24.21;100.00;100269.78;5066712;28;20064;-82
2022/08/03 06:54:48;;;;;;;2.15;0.57;;;;;;;24.17;100.00;100273.88;5051990;28;20028;-82
2022/08/03 06:57:15;;;;;;;2.58;0.75;;;;;;;24.26;100.00;100278.91;5050584;28;20439;-81
2022/08/03 06:59:41;;;;;;;2.40;0.65;;;;;;;23.85;100.00;100281.50;5051842;28;20025;-82
2022/08/03 07:02:06;;;;;;;5.50;0.55;;;;;;;24.20;100.00;100273.50;5060976;28;20024;-82
2022/08/03 07:04:32;;;;;;;4.55;0.90;;;;;;;24.26;100.00;100272.72;5071491;28;20310;-80
2022/08/03 07:06:57;;;;;;;2.10;0.32;;;;;;;24.38;100.00;100281.03;5071126;28;20548;-80
2022/08/03 07:09:23;;;;;;;3.83;0.70;;;;;;;24.14;100.00;100275.13;5070535;28;20029;-82
2022/08/03 07:11:48;;;;;;;3.67;0.63;;;;;;;24.07;100.00;100269.72;5070503;28;20545;-81
2022/08/03 07:14:13;;;;;;;2.45;0.57;;;;;;;23.85;100.00;100276.97;5070702;28;20017;-81
2022/08/03 07:16:39;;;;;;;3.83;0.90;;;;;;;24.01;100.00;100270.47;5070651;28;20028;-81
2022/08/03 07:19:04;;;;;;;3.50;0.35;;;;;;;24.21;100.00;100275.16;5068476;28;20024;-82
2022/08/03 07:21:30;;;;;;;3.33;0.63;;;;;;;24.34;100.00;100277.91;5070949;28;20020;-82
2022/08/03 07:23:55;;;;;;;2.17;0.40;;;;;;;24.24;100.00;100290.84;5070577;28;20032;-82
2022/08/03 07:26:20;;;;;;;3.78;0.68;;;;;;;24.11;100.00;100281.72;5069712;28;20186;-82
2022/08/03 07:28:45;;;;;;;2.10;0.50;;;;;;;24.20;100.00;100279.69;5070651;28;20077;-82
2022/08/03 07:31:11;;;;;;;2.58;1.02;;;;;;;24.23;100.00;100283.81;5070752;28;20032;-82
2022/08/03 07:33:36;;;;;;;4.85;0.40;;;;;;;24.14;100.00;100275.94;5066367;28;20025;-82
2022/08/03 07:36:02;;;;;;;3.13;0.77;;;;;;;24.30;100.00;100284.69;5053689;28;20039;-82
2022/08/03 07:38:28;;;;;;;4.22;0.50;;;;;;;24.43;100.00;100283.97;5060606;28;20041;-82
2022/08/03 07:40:54;;;;;;;3.42;0.55;;;;;;;24.24;100.00;100280.13;5049536;28;20033;-82
2022/08/03 07:43:19;;;;;;;2.75;0.60;;;;;;;24.09;100.00;100281.06;5082883;28;20035;-82
2022/08/03 07:45:45;;;;;;;2.47;0.60;;;;;;;24.43;100.00;100283.97;5065795;28;20025;-82
2022/08/03 07:48:10;;;;;;;1.98;0.32;;;;;;;24.30;100.00;100292.75;5065961;28;20140;-82
2022/08/03 07:50:35;;;;;;;2.80;0.52;;;;;;;24.47;100.00;100291.41;5045779;28;20322;-82
2022/08/03 07:53:01;;;;;;;4.88;0.50;;;;;;;24.60;100.00;100287.16;5046130;28;20478;-82
2022/08/03 07:55:27;;;;;;;1.20;0.50;;;;;;;24.46;100.00;100287.06;5046275;28;20033;-82
2022/08/03 07:58:08;;;;;;;4.17;1.20;;;;;;;24.53;100.00;100297.88;5046418;28;20031;-81
2022/08/03 08:00:35;;;;;;;1.55;0.45;;;;;;;24.69;100.00;100297.53;5046146;28;20033;-82
2022/08/03 08:03:00;;;;;;;;;;;;;;;24.78;100.00;100292.81;5046841;28;20271;-82
2022/08/03 08:05:26;;;;;;;2.60;0.90;;;;;;;24.51;100.00;100298.06;5063511;28;20255;-82
2022/08/03 08:07:52;;;;;;;2.83;0.32;;;;;;;24.41;100.00;100294.03;5065327;28;20198;-82
2022/08/03 08:10:17;;;;;;;1.83;0.28;;;;;;;24.47;100.00;100291.41;5048366;28;20040;-81
2022/08/03 08:12:43;;;;;;;5.43;0.60;;;;;;;24.62;100.00;100290.47;5046217;28;20387;-81
2022/08/03 08:15:08;;;;;;;3.50;0.45;;;;;;;24.79;100.00;100291.81;5062639;28;20024;-81
2022/08/03 08:17:45;;;;;;;0.73;0.43;;;;;;;24.98;100.00;100297.44;5060063;28;20268;-82
2022/08/03 08:20:15;;;;;;;2.35;0.50;;;;;;;24.76;100.00;100292.19;5059540;28;20398;-82
2022/08/03 08:22:41;;;;;;;2.80;0.45;;;;;;;25.26;100.00;100292.00;5047711;28;20021;-82
2022/08/03 08:25:07;;;;;;;6.38;1.20;;;;;;;25.26;100.00;100300.88;5068398;28;20473;-83
2022/08/03 08:27:32;;;;;;;4.65;1.00;;;;;;;25.22;100.00;100291.56;5070459;28;20037;-82
2022/08/03 08:29:57;;;;;;;1.45;0.50;;;;;;;25.22;100.00;100288.06;5069944;28;20067;-82
2022/08/03 08:32:23;;;;;;;3.65;0.55;;;;;;;25.42;100.00;100288.09;5069661;28;20081;-81
2022/08/03 08:34:48;;;;;;;0.60;0.32;;;;;;;25.72;99.56;100278.59;5067085;28;20035;-82
2022/08/03 08:37:14;;;;;;;4.45;0.40;;;;;;;26.12;97.95;100285.81;5069430;28;20064;-83
2022/08/03 08:39:39;;;;;;;1.25;0.20;;;;;;;26.33;97.41;100278.56;5070616;28;20081;-82
2022/08/03 08:42:04;;;;;;;2.45;0.28;;;;;;;26.29;95.44;100280.84;5058667;28;20107;-82
2022/08/03 08:44:30;;;;;;;1.58;0.22;;;;;;;26.23;96.45;100290.56;5061563;28;20111;-83
2022/08/03 08:47:00;;;;;;;0.95;0.32;;;;;;;26.21;96.50;100297.22;5061767;28;20112;-82
2022/08/03 08:49:26;;;;;;;1.17;0.30;;;;;;;26.81;93.50;100265.56;5069276;28;20098;-82
2022/08/03 08:51:55;;;;;;;2.60;0.30;;;;;;;26.65;92.88;100271.44;5061532;28;20027;-82
2022/08/03 08:54:22;;;;;;;1.65;0.30;;;;;;;26.89;92.51;100273.38;5062321;28;20033;-82
2022/08/03 08:56:52;;;;;;;0.65;0.10;;;;;;;27.34;91.23;100285.19;5050032;28;20429;-82
2022/08/03 08:59:19;;;;;;;0.63;0.30;;;;;;;26.95;90.99;100292.44;5049950;28;20086;-82
2022/08/03 09:01:44;;;;;;;2.33;0.10;;;;;;;26.54;91.46;100280.13;5053880;28;20029;-82
2022/08/03 09:04:10;;;;;;;2.33;0.40;;;;;;;26.43;91.48;100276.25;5065527;28;20027;-82
2022/08/03 09:06:36;;;;;;;3.58;0.95;;;;;;;26.89;90.87;100276.06;5059238;28;20483;-83
2022/08/03 09:09:01;;;;;;;4.88;0.20;;;;;;;26.90;91.21;100275.06;5072163;28;20475;-83
2022/08/03 09:11:26;;;;;;;0.52;0.17;;;;;;;26.73;90.10;100283.84;5073737;28;20099;-83
2022/08/03 09:13:52;;;;;;;0.95;0.20;;;;;;;26.77;90.59;100285.06;5070958;28;20024;-83
2022/08/03 09:16:19;;;;;;;0.93;0.17;;;;;;;26.39;91.47;100283.91;5063325;28;20491;-83
2022/08/03 09:18:47;;;;;;;2.67;0.13;;;;;;;26.30;92.58;100288.72;5053668;28;20052;-83
2022/08/03 09:21:16;;;;;;;2.65;0.30;;;;;;;25.96;93.73;100294.34;5063549;28;20032;-83
2022/08/03 09:23:50;;;;;;;3.05;0.47;;;;;;;25.86;95.60;100289.34;5053371;28;20056;-83
2022/08/03 09:26:26;;;;;;;3.85;0.50;;;;;;;25.98;95.90;100287.72;5053503;28;20108;-83
2022/08/03 09:29:04;;;;;;;2.58;0.43;;;;;;;25.68;98.16;100298.03;5051992;28;20025;-82
2022/08/03 09:31:31;;;;;;;1.70;0.30;;;;;;;25.21;100.00;100314.03;5053343;28;20051;-82
2022/08/03 09:33:59;;;;;;;1.02;0.50;;;;;;;24.77;100.00;100320.72;5071077;28;20032;-82
2022/08/03 09:36:36;;;;;;;4.82;0.93;;;;;;;24.76;100.00;100318.22;5064956;28;20032;-82
2022/08/03 09:39:05;;;;;;;2.55;1.23;;;;;;;24.90;100.00;100318.09;5067682;28;20028;-83
2022/08/03 09:41:31;;;;;;;3.45;1.02;;;;;;;24.48;100.00;100324.44;5072998;28;20116;-83
2022/08/03 09:43:56;;;;;;;0.70;0.70;;;;;;;24.44;100.00;100318.63;5073074;28;20036;-82
2022/08/03 09:46:21;;;;;;;1.13;0.60;;;;;;;24.69;100.00;100323.56;5072214;28;20029;-82
2022/08/03 09:48:47;;;;;;;1.25;0.50;;;;;;;24.43;100.00;100326.91;5055499;28;20482;-82
2022/08/03 09:51:14;;;;;;;1.00;0.47;;;;;;;24.73;100.00;100327.50;5059936;28;20384;-82
2022/08/03 09:53:44;;;;;;;0.90;0.40;;;;;;;24.67;100.00;100328.31;5053422;28;20056;-82
2022/08/03 09:56:09;;;;;;;1.48;0.43;;;;;;;24.33;100.00;100329.94;5052803;28;20059;-82
2022/08/03 09:58:44;;;;;;;0.30;0.30;;;;;;;24.39;100.00;100331.84;5053083;28;20107;-82
2022/08/03 10:01:10;;;;;;;0.35;0.10;;;;;;;24.45;100.00;100327.53;5052572;28;20135;-82
2022/08/03 10:03:38;;;;;;;0.40;0.20;;;;;;;24.64;100.00;100328.69;5053182;28;20530;-82
2022/08/03 10:06:21;;;;;;;2.75;0.17;;;;;;;24.71;100.00;100324.19;5051100;28;20418;-82
2022/08/03 10:09:03;;;;;;;0.10;0.10;;;;;;;24.65;100.00;100333.03;5052497;28;20120;-82
2022/08/03 10:11:30;;;;;;;0.43;0.10;;;;;;;24.52;100.00;100336.47;5051372;28;20040;-82
2022/08/03 10:13:55;;;;;;;0.20;0.10;;;;;;;24.27;100.00;100333.38;5052711;28;20024;-82
2022/08/03 10:16:20;;;;;;;0.98;0.15;;;;;;;23.81;100.00;100331.16;5052641;28;20415;-82
2022/08/03 10:18:46;;;;;;;1.45;0.10;;;;;;;24.08;100.00;100340.28;5052365;28;20025;-82
2022/08/03 10:21:16;;;;;;;0.45;0.17;;;;;;;24.66;100.00;100337.38;5052087;28;20040;-82
2022/08/03 10:23:42;;;;;;;0.77;0.20;;;;;;;24.76;100.00;100340.50;5052890;28;20120;-82
2022/08/03 10:26:15;;;;;;;0.20;0.20;;;;;;;24.77;100.00;100338.69;5052397;28;20021;-82
2022/08/03 10:28:48;;;;;;;0.28;0.20;;;;;;;24.82;100.00;100347.81;5052178;28;20302;-82
2022/08/03 10:31:17;;;;;;;0.30;0.10;;;;;;;24.19;100.00;100347.78;5052147;28;20029;-82
2022/08/03 10:33:46;;;;;;;0.47;0.17;;;;;;;24.66;100.00;100356.16;5052261;28;20028;-83
2022/08/03 10:36:12;;;;;;;0.60;0.30;;;;;;;24.78;98.74;100351.88;5051810;28;20021;-82
2022/08/03 10:38:46;;;;;;;1.33;0.20;;;;;;;24.89;97.09;100350.50;5052225;28;20226;-82
2022/08/03 10:41:12;;;;;;;0.98;0.30;;;;;;;24.64;99.31;100350.97;5052136;28;20031;-82
2022/08/03 10:44:17;;;;;;;0.50;0.20;;;;;;;24.67;99.94;100355.97;5052318;28;20067;-82
2022/08/03 10:46:44;;;;;;;0.90;0.50;;;;;;;25.00;96.45;100358.00;5040497;28;20120;-82
2022/08/03 10:49:13;;;;;;;3.15;0.70;;;;;;;24.80;97.11;100357.06;5051894;28;20025;-82
2022/08/03 10:51:41;;;;;;;1.83;0.57;;;;;;;24.82;96.04;100357.69;5057905;28;20017;-82
2022/08/03 10:54:09;;;;;;;1.15;0.60;;;;;;;24.97;96.66;100353.03;5059529;28;20036;-82
2022/08/03 10:59:39;;;;;;;3.08;1.25;;;;;;;24.93;97.08;100354.44;5051762;28;20035;-82
2022/08/03 11:02:07;;;;;;;4.00;0.90;;;;;;;24.80;96.92;100363.25;5047775;28;20040;-83
2022/08/03 11:04:32;;;;;;;2.38;0.70;;;;;;;24.82;98.94;100363.06;5051923;28;20032;-83
2022/08/03 11:07:16;;;;;;;7.15;1.00;;;;;;;24.82;99.51;100363.91;5051346;28;20414;-82
2022/08/03 11:09:47;;;;;;;1.75;0.60;;;;;;;24.97;98.37;100354.88;5051681;28;20025;-82
2022/08/03 11:12:26;;;;;;;1.95;0.85;;;;;;;25.13;98.19;100354.53;5051821;28;20071;-83
2022/08/03 11:14:53;;;;;;;2.15;1.02;;;;;;;24.94;97.93;100351.56;5051779;28;20379;-82
2022/08/03 11:17:19;;;;;;;4.18;1.02;;;;;;;24.56;99.72;100353.00;5051674;28;20035;-82
2022/08/03 11:19:47;;;;;;;2.78;0.93;;;;;;;24.92;98.72;100359.00;5051608;28;20029;-83
2022/08/03 11:22:14;;;;;;;1.88;0.82;;;;;;;25.10;95.97;100352.25;5051792;28;20025;-82
2022/08/03 11:24:39;;;;;;;3.53;1.60;;;;;;;25.29;95.93;100358.75;5051902;28;20025;-82
2022/08/03 11:27:23;;;;;;;4.35;1.08;;;;;;;24.96;94.56;100363.97;5051398;28;20024;-82
2022/08/03 11:30:12;;;;;;;3.95;1.60;;;;;;;25.06;94.40;100359.88;5051449;28;20033;-82
2022/08/03 11:32:42;;;;;;;5.28;1.77;;;;;;;24.96;93.80;100358.59;5071154;28;20025;-82
2022/08/03 11:35:19;;;;;;;4.20;1.20;;;;;;;25.59;93.03;100361.91;5071767;28;20032;-82